sensor_id;sensor_type;location;lat;lon;timestamp;P1;durP1;ratioP1;P2;durP2;ratioP2
60318;SDS011;46163;52.306;5.634;2022-11-20T00:02:09;3.67;;;2.78;;
60318;SDS011;46163;52.306;5.634;2022-11-20T00:04:34;3.10;;;2.42;;
60318;SDS011;46163;52.306;5.634;2022-11-20T00:07:00;3.47;;;2.67;;
60318;SDS011;46163;52.306;5.634;2022-11-20T00:09:26;4.20;;;2.67;;
60318;SDS011;46163;52.306;5.634;2022-11-20T00:11:52;3.15;;;2.85;;
60318;SDS011;46163;52.306;5.634;2022-11-20T00:14:18;3.10;;;2.63;;
60318;SDS011;46163;52.306;5.634;2022-11-20T00:16:47;3.47;;;2.92;;
60318;SDS011;46163;52.306;5.634;2022-11-20T00:19:12;3.10;;;2.60;;
60318;SDS011;46163;52.306;5.634;2022-11-20T00:21:38;3.45;;;2.65;;
60318;SDS011;46163;52.306;5.634;2022-11-20T00:24:03;3.70;;;2.72;;
60318;SDS011;46163;52.306;5.634;2022-11-20T00:26:29;4.28;;;3.15;;
60318;SDS011;46163;52.306;5.634;2022-11-20T00:28:56;3.28;;;2.67;;
60318;SDS011;46163;52.306;5.634;2022-11-20T00:31:23;3.22;;;2.40;;
60318;SDS011;46163;52.306;5.634;2022-11-20T00:33:49;3.83;;;2.92;;
60318;SDS011;46163;52.306;5.634;2022-11-20T00:36:16;3.05;;;2.58;;
60318;SDS011;46163;52.306;5.634;2022-11-20T00:41:10;2.90;;;2.53;;
60318;SDS011;46163;52.306;5.634;2022-11-20T00:43:37;3.78;;;2.70;;
60318;SDS011;46163;52.306;5.634;2022-11-20T00:46:05;3.40;;;2.75;;
60318;SDS011;46163;52.306;5.634;2022-11-20T00:48:32;3.60;;;2.70;;
60318;SDS011;46163;52.306;5.634;2022-11-20T00:50:58;3.10;;;2.60;;
60318;SDS011;46163;52.306;5.634;2022-11-20T00:53:24;4.30;;;2.70;;
60318;SDS011;46163;52.306;5.634;2022-11-20T00:55:54;2.97;;;2.50;;
60318;SDS011;46163;52.306;5.634;2022-11-20T00:58:28;3.53;;;2.92;;
60318;SDS011;46163;52.306;5.634;2022-11-20T01:00:59;3.50;;;2.42;;
60318;SDS011;46163;52.306;5.634;2022-11-20T01:03:36;4.10;;;2.50;;
60318;SDS011;46163;52.306;5.634;2022-11-20T01:06:04;2.85;;;2.40;;
60318;SDS011;46163;52.306;5.634;2022-11-20T01:08:41;2.70;;;2.50;;
60318;SDS011;46163;52.306;5.634;2022-11-20T01:11:11;3.83;;;2.80;;
60318;SDS011;46163;52.306;5.634;2022-11-20T01:13:38;2.58;;;2.30;;
60318;SDS011;46163;52.306;5.634;2022-11-20T01:18:50;3.20;;;2.63;;
60318;SDS011;46163;52.306;5.634;2022-11-20T01:21:18;3.25;;;2.70;;
60318;SDS011;46163;52.306;5.634;2022-11-20T01:23:53;3.33;;;2.70;;
60318;SDS011;46163;52.306;5.634;2022-11-20T01:26:21;3.05;;;2.60;;
60318;SDS011;46163;52.306;5.634;2022-11-20T01:28:53;4.00;;;2.67;;
60318;SDS011;46163;52.306;5.634;2022-11-20T01:31:24;2.47;;;2.28;;
60318;SDS011;46163;52.306;5.634;2022-11-20T01:33:56;3.65;;;2.83;;
60318;SDS011;46163;52.306;5.634;2022-11-20T01:38:53;2.72;;;2.38;;
60318;SDS011;46163;52.306;5.634;2022-11-20T01:41:21;3.17;;;2.40;;
60318;SDS011;46163;52.306;5.634;2022-11-20T01:44:06;2.75;;;2.40;;
60318;SDS011;46163;52.306;5.634;2022-11-20T01:46:33;2.95;;;2.33;;
60318;SDS011;46163;52.306;5.634;2022-11-20T01:49:08;2.88;;;2.50;;
60318;SDS011;46163;52.306;5.634;2022-11-20T01:54:07;2.63;;;2.33;;
60318;SDS011;46163;52.306;5.634;2022-11-20T01:56:37;2.95;;;2.38;;
60318;SDS011;46163;52.306;5.634;2022-11-20T01:59:08;3.20;;;2.65;;
60318;SDS011;46163;52.306;5.634;2022-11-20T02:01:37;3.03;;;2.40;;
60318;SDS011;46163;52.306;5.634;2022-11-20T02:04:04;3.92;;;2.63;;
60318;SDS011;46163;52.306;5.634;2022-11-20T02:06:34;2.40;;;2.20;;
60318;SDS011;46163;52.306;5.634;2022-11-20T02:09:07;2.65;;;2.30;;
60318;SDS011;46163;52.306;5.634;2022-11-20T02:11:33;2.95;;;2.30;;
60318;SDS011;46163;52.306;5.634;2022-11-20T02:13:58;2.97;;;2.40;;
60318;SDS011;46163;52.306;5.634;2022-11-20T02:16:25;2.72;;;2.50;;
60318;SDS011;46163;52.306;5.634;2022-11-20T02:18:55;2.30;;;2.10;;
60318;SDS011;46163;52.306;5.634;2022-11-20T02:21:27;3.00;;;2.38;;
60318;SDS011;46163;52.306;5.634;2022-11-20T02:24:17;3.88;;;2.50;;
60318;SDS011;46163;52.306;5.634;2022-11-20T02:26:54;2.60;;;2.28;;
60318;SDS011;46163;52.306;5.634;2022-11-20T02:29:37;2.60;;;2.40;;
60318;SDS011;46163;52.306;5.634;2022-11-20T02:32:16;3.03;;;2.50;;
60318;SDS011;46163;52.306;5.634;2022-11-20T02:34:43;3.28;;;2.28;;
60318;SDS011;46163;52.306;5.634;2022-11-20T02:37:11;2.58;;;2.10;;
60318;SDS011;46163;52.306;5.634;2022-11-20T02:39:37;2.95;;;2.20;;
60318;SDS011;46163;52.306;5.634;2022-11-20T02:42:02;2.30;;;2.10;;
60318;SDS011;46163;52.306;5.634;2022-11-20T02:44:31;2.63;;;2.28;;
60318;SDS011;46163;52.306;5.634;2022-11-20T02:46:57;3.65;;;2.10;;
60318;SDS011;46163;52.306;5.634;2022-11-20T02:49:23;2.40;;;2.08;;
60318;SDS011;46163;52.306;5.634;2022-11-20T02:51:49;6.03;;;2.30;;
60318;SDS011;46163;52.306;5.634;2022-11-20T02:54:16;2.22;;;2.00;;
60318;SDS011;46163;52.306;5.634;2022-11-20T02:56:42;2.40;;;2.10;;
60318;SDS011;46163;52.306;5.634;2022-11-20T02:59:08;2.67;;;2.30;;
60318;SDS011;46163;52.306;5.634;2022-11-20T03:01:34;3.00;;;1.90;;
60318;SDS011;46163;52.306;5.634;2022-11-20T03:04:00;2.47;;;2.28;;
60318;SDS011;46163;52.306;5.634;2022-11-20T03:06:26;2.53;;;1.98;;
60318;SDS011;46163;52.306;5.634;2022-11-20T03:08:51;2.40;;;2.20;;
60318;SDS011;46163;52.306;5.634;2022-11-20T03:11:17;2.60;;;2.10;;
60318;SDS011;46163;52.306;5.634;2022-11-20T03:13:42;2.40;;;2.20;;
60318;SDS011;46163;52.306;5.634;2022-11-20T03:16:09;2.10;;;1.90;;
60318;SDS011;46163;52.306;5.634;2022-11-20T03:18:39;2.20;;;2.00;;
60318;SDS011;46163;52.306;5.634;2022-11-20T03:21:05;2.15;;;1.95;;
60318;SDS011;46163;52.306;5.634;2022-11-20T03:23:31;2.10;;;1.80;;
60318;SDS011;46163;52.306;5.634;2022-11-20T03:26:07;2.17;;;1.85;;
60318;SDS011;46163;52.306;5.634;2022-11-20T03:28:42;2.13;;;1.92;;
60318;SDS011;46163;52.306;5.634;2022-11-20T03:31:12;2.20;;;2.00;;
60318;SDS011;46163;52.306;5.634;2022-11-20T03:33:39;1.73;;;1.63;;
60318;SDS011;46163;52.306;5.634;2022-11-20T03:36:08;2.58;;;2.00;;
60318;SDS011;46163;52.306;5.634;2022-11-20T03:38:36;1.75;;;1.65;;
60318;SDS011;46163;52.306;5.634;2022-11-20T03:41:02;2.17;;;1.95;;
60318;SDS011;46163;52.306;5.634;2022-11-20T03:43:51;1.77;;;1.67;;
60318;SDS011;46163;52.306;5.634;2022-11-20T03:46:18;1.83;;;1.73;;
60318;SDS011;46163;52.306;5.634;2022-11-20T03:48:44;1.80;;;1.70;;
60318;SDS011;46163;52.306;5.634;2022-11-20T03:51:17;2.15;;;1.95;;
60318;SDS011;46163;52.306;5.634;2022-11-20T03:53:45;2.08;;;1.70;;
60318;SDS011;46163;52.306;5.634;2022-11-20T03:56:12;2.10;;;1.90;;
60318;SDS011;46163;52.306;5.634;2022-11-20T03:58:39;1.67;;;1.57;;
60318;SDS011;46163;52.306;5.634;2022-11-20T04:03:33;1.70;;;1.60;;
60318;SDS011;46163;52.306;5.634;2022-11-20T04:06:03;1.70;;;1.60;;
60318;SDS011;46163;52.306;5.634;2022-11-20T04:08:34;1.70;;;1.60;;
60318;SDS011;46163;52.306;5.634;2022-11-20T04:11:09;1.60;;;1.48;;
60318;SDS011;46163;52.306;5.634;2022-11-20T04:13:39;1.65;;;1.55;;
60318;SDS011;46163;52.306;5.634;2022-11-20T04:16:06;1.40;;;1.30;;
60318;SDS011;46163;52.306;5.634;2022-11-20T04:18:33;1.83;;;1.50;;
60318;SDS011;46163;52.306;5.634;2022-11-20T04:20:59;1.45;;;1.35;;
60318;SDS011;46163;52.306;5.634;2022-11-20T04:23:25;1.50;;;1.40;;
60318;SDS011;46163;52.306;5.634;2022-11-20T04:25:51;1.65;;;1.50;;
60318;SDS011;46163;52.306;5.634;2022-11-20T04:28:16;1.65;;;1.55;;
60318;SDS011;46163;52.306;5.634;2022-11-20T04:30:42;1.63;;;1.42;;
60318;SDS011;46163;52.306;5.634;2022-11-20T04:33:08;1.50;;;1.40;;
60318;SDS011;46163;52.306;5.634;2022-11-20T04:35:34;1.50;;;1.40;;
60318;SDS011;46163;52.306;5.634;2022-11-20T04:38:01;1.38;;;1.30;;
60318;SDS011;46163;52.306;5.634;2022-11-20T04:40:29;1.38;;;1.27;;
60318;SDS011;46163;52.306;5.634;2022-11-20T04:42:55;1.70;;;1.60;;
60318;SDS011;46163;52.306;5.634;2022-11-20T04:45:22;1.45;;;1.35;;
60318;SDS011;46163;52.306;5.634;2022-11-20T04:47:48;1.20;;;1.20;;
60318;SDS011;46163;52.306;5.634;2022-11-20T04:50:13;1.58;;;1.48;;
60318;SDS011;46163;52.306;5.634;2022-11-20T04:52:39;1.50;;;1.40;;
60318;SDS011;46163;52.306;5.634;2022-11-20T04:55:07;1.35;;;1.35;;
60318;SDS011;46163;52.306;5.634;2022-11-20T04:57:33;1.20;;;1.20;;
60318;SDS011;46163;52.306;5.634;2022-11-20T04:59:59;1.40;;;1.30;;
60318;SDS011;46163;52.306;5.634;2022-11-20T05:02:24;1.48;;;1.33;;
60318;SDS011;46163;52.306;5.634;2022-11-20T05:04:50;1.10;;;1.10;;
60318;SDS011;46163;52.306;5.634;2022-11-20T05:07:15;1.40;;;1.30;;
60318;SDS011;46163;52.306;5.634;2022-11-20T05:09:41;1.40;;;1.30;;
60318;SDS011;46163;52.306;5.634;2022-11-20T05:12:07;1.10;;;1.10;;
60318;SDS011;46163;52.306;5.634;2022-11-20T05:14:33;1.30;;;1.30;;
60318;SDS011;46163;52.306;5.634;2022-11-20T05:16:59;1.25;;;1.25;;
60318;SDS011;46163;52.306;5.634;2022-11-20T05:19:25;1.38;;;1.30;;
60318;SDS011;46163;52.306;5.634;2022-11-20T05:21:50;1.30;;;1.30;;
60318;SDS011;46163;52.306;5.634;2022-11-20T05:24:16;1.20;;;1.20;;
60318;SDS011;46163;52.306;5.634;2022-11-20T05:26:42;1.27;;;1.17;;
60318;SDS011;46163;52.306;5.634;2022-11-20T05:29:10;1.10;;;1.10;;
60318;SDS011;46163;52.306;5.634;2022-11-20T05:31:38;0.90;;;0.90;;
60318;SDS011;46163;52.306;5.634;2022-11-20T05:34:04;1.17;;;1.17;;
60318;SDS011;46163;52.306;5.634;2022-11-20T05:36:31;1.17;;;1.17;;
60318;SDS011;46163;52.306;5.634;2022-11-20T05:38:56;1.20;;;1.20;;
60318;SDS011;46163;52.306;5.634;2022-11-20T05:41:22;1.30;;;1.20;;
60318;SDS011;46163;52.306;5.634;2022-11-20T05:43:48;1.00;;;1.00;;
60318;SDS011;46163;52.306;5.634;2022-11-20T05:46:17;1.08;;;1.08;;
60318;SDS011;46163;52.306;5.634;2022-11-20T05:48:44;1.02;;;1.02;;
60318;SDS011;46163;52.306;5.634;2022-11-20T05:51:11;1.00;;;1.00;;
60318;SDS011;46163;52.306;5.634;2022-11-20T05:53:39;1.00;;;1.00;;
60318;SDS011;46163;52.306;5.634;2022-11-20T05:56:12;1.02;;;1.02;;
60318;SDS011;46163;52.306;5.634;2022-11-20T05:58:40;1.33;;;1.25;;
60318;SDS011;46163;52.306;5.634;2022-11-20T06:01:10;1.10;;;1.10;;
60318;SDS011;46163;52.306;5.634;2022-11-20T06:03:47;1.30;;;1.20;;
60318;SDS011;46163;52.306;5.634;2022-11-20T06:06:15;1.10;;;1.10;;
60318;SDS011;46163;52.306;5.634;2022-11-20T06:08:43;1.00;;;1.00;;
60318;SDS011;46163;52.306;5.634;2022-11-20T06:11:10;1.20;;;1.20;;
60318;SDS011;46163;52.306;5.634;2022-11-20T06:13:37;1.20;;;1.20;;
60318;SDS011;46163;52.306;5.634;2022-11-20T06:16:03;1.20;;;1.10;;
60318;SDS011;46163;52.306;5.634;2022-11-20T06:18:32;1.23;;;1.20;;
60318;SDS011;46163;52.306;5.634;2022-11-20T06:21:04;1.10;;;1.10;;
60318;SDS011;46163;52.306;5.634;2022-11-20T06:23:32;1.10;;;1.10;;
60318;SDS011;46163;52.306;5.634;2022-11-20T06:26:04;1.05;;;1.05;;
60318;SDS011;46163;52.306;5.634;2022-11-20T06:28:34;1.08;;;1.08;;
60318;SDS011;46163;52.306;5.634;2022-11-20T06:30:59;1.13;;;1.13;;
60318;SDS011;46163;52.306;5.634;2022-11-20T06:33:26;1.10;;;1.10;;
60318;SDS011;46163;52.306;5.634;2022-11-20T06:35:55;1.13;;;1.10;;
60318;SDS011;46163;52.306;5.634;2022-11-20T06:38:22;1.00;;;1.00;;
60318;SDS011;46163;52.306;5.634;2022-11-20T06:40:47;1.13;;;1.13;;
60318;SDS011;46163;52.306;5.634;2022-11-20T06:43:13;1.00;;;1.00;;
60318;SDS011;46163;52.306;5.634;2022-11-20T06:45:38;1.17;;;1.10;;
60318;SDS011;46163;52.306;5.634;2022-11-20T06:48:04;1.10;;;1.10;;
60318;SDS011;46163;52.306;5.634;2022-11-20T06:50:31;1.23;;;1.10;;
60318;SDS011;46163;52.306;5.634;2022-11-20T06:52:56;1.00;;;1.00;;
60318;SDS011;46163;52.306;5.634;2022-11-20T06:55:25;1.30;;;1.20;;
60318;SDS011;46163;52.306;5.634;2022-11-20T06:57:51;0.90;;;0.90;;
60318;SDS011;46163;52.306;5.634;2022-11-20T07:00:16;0.93;;;0.93;;
60318;SDS011;46163;52.306;5.634;2022-11-20T07:02:42;0.93;;;0.93;;
60318;SDS011;46163;52.306;5.634;2022-11-20T07:05:08;1.13;;;1.10;;
60318;SDS011;46163;52.306;5.634;2022-11-20T07:07:33;1.10;;;1.10;;
60318;SDS011;46163;52.306;5.634;2022-11-20T07:10:02;0.90;;;0.90;;
60318;SDS011;46163;52.306;5.634;2022-11-20T07:12:28;1.23;;;1.13;;
60318;SDS011;46163;52.306;5.634;2022-11-20T07:14:53;1.05;;;1.05;;
60318;SDS011;46163;52.306;5.634;2022-11-20T07:17:19;1.20;;;1.20;;
60318;SDS011;46163;52.306;5.634;2022-11-20T07:19:45;1.30;;;1.30;;
60318;SDS011;46163;52.306;5.634;2022-11-20T07:22:10;1.27;;;1.27;;
60318;SDS011;46163;52.306;5.634;2022-11-20T07:24:36;1.58;;;1.15;;
60318;SDS011;46163;52.306;5.634;2022-11-20T07:27:01;1.10;;;1.10;;
60318;SDS011;46163;52.306;5.634;2022-11-20T07:29:27;1.02;;;1.02;;
60318;SDS011;46163;52.306;5.634;2022-11-20T07:31:52;0.80;;;0.80;;
60318;SDS011;46163;52.306;5.634;2022-11-20T07:34:20;1.00;;;1.00;;
60318;SDS011;46163;52.306;5.634;2022-11-20T07:36:46;1.00;;;1.00;;
60318;SDS011;46163;52.306;5.634;2022-11-20T07:39:11;1.20;;;1.10;;
60318;SDS011;46163;52.306;5.634;2022-11-20T07:41:37;0.80;;;0.80;;
60318;SDS011;46163;52.306;5.634;2022-11-20T07:44:02;1.00;;;1.00;;
60318;SDS011;46163;52.306;5.634;2022-11-20T07:46:28;1.25;;;1.20;;
60318;SDS011;46163;52.306;5.634;2022-11-20T07:48:54;0.90;;;0.90;;
60318;SDS011;46163;52.306;5.634;2022-11-20T07:51:20;1.20;;;1.20;;
60318;SDS011;46163;52.306;5.634;2022-11-20T07:53:46;1.05;;;1.05;;
60318;SDS011;46163;52.306;5.634;2022-11-20T07:56:11;1.30;;;1.23;;
60318;SDS011;46163;52.306;5.634;2022-11-20T07:58:38;1.33;;;1.23;;
60318;SDS011;46163;52.306;5.634;2022-11-20T08:01:05;0.95;;;0.95;;
60318;SDS011;46163;52.306;5.634;2022-11-20T08:03:32;0.95;;;0.95;;
60318;SDS011;46163;52.306;5.634;2022-11-20T08:05:59;1.42;;;1.33;;
60318;SDS011;46163;52.306;5.634;2022-11-20T08:08:25;0.90;;;0.90;;
60318;SDS011;46163;52.306;5.634;2022-11-20T08:10:51;1.10;;;1.10;;
60318;SDS011;46163;52.306;5.634;2022-11-20T08:13:17;1.00;;;1.00;;
60318;SDS011;46163;52.306;5.634;2022-11-20T08:16:01;1.00;;;1.00;;
60318;SDS011;46163;52.306;5.634;2022-11-20T08:18:27;1.17;;;1.13;;
60318;SDS011;46163;52.306;5.634;2022-11-20T08:20:53;1.10;;;1.10;;
60318;SDS011;46163;52.306;5.634;2022-11-20T08:23:19;0.90;;;0.90;;
60318;SDS011;46163;52.306;5.634;2022-11-20T08:25:48;1.20;;;1.20;;
60318;SDS011;46163;52.306;5.634;2022-11-20T08:28:14;1.27;;;1.17;;
60318;SDS011;46163;52.306;5.634;2022-11-20T08:30:40;1.17;;;1.00;;
60318;SDS011;46163;52.306;5.634;2022-11-20T08:33:06;1.17;;;1.17;;
60318;SDS011;46163;52.306;5.634;2022-11-20T08:35:34;1.13;;;1.13;;
60318;SDS011;46163;52.306;5.634;2022-11-20T08:38:04;1.15;;;1.10;;
60318;SDS011;46163;52.306;5.634;2022-11-20T08:40:30;1.40;;;1.30;;
60318;SDS011;46163;52.306;5.634;2022-11-20T08:42:56;1.35;;;1.25;;
60318;SDS011;46163;52.306;5.634;2022-11-20T08:45:22;1.10;;;1.10;;
60318;SDS011;46163;52.306;5.634;2022-11-20T08:47:48;1.98;;;1.10;;
60318;SDS011;46163;52.306;5.634;2022-11-20T08:50:15;1.00;;;1.00;;
60318;SDS011;46163;52.306;5.634;2022-11-20T08:52:42;2.60;;;1.10;;
60318;SDS011;46163;52.306;5.634;2022-11-20T08:55:07;1.10;;;1.10;;
60318;SDS011;46163;52.306;5.634;2022-11-20T08:57:34;0.93;;;0.93;;
60318;SDS011;46163;52.306;5.634;2022-11-20T09:00:02;1.20;;;1.20;;
60318;SDS011;46163;52.306;5.634;2022-11-20T09:02:30;1.30;;;1.30;;
60318;SDS011;46163;52.306;5.634;2022-11-20T09:04:57;1.50;;;1.40;;
60318;SDS011;46163;52.306;5.634;2022-11-20T09:07:23;1.25;;;1.15;;
60318;SDS011;46163;52.306;5.634;2022-11-20T09:09:48;1.40;;;1.30;;
60318;SDS011;46163;52.306;5.634;2022-11-20T09:12:14;1.00;;;1.00;;
60318;SDS011;46163;52.306;5.634;2022-11-20T09:14:39;1.20;;;1.20;;
60318;SDS011;46163;52.306;5.634;2022-11-20T09:17:05;1.30;;;1.30;;
60318;SDS011;46163;52.306;5.634;2022-11-20T09:19:32;1.15;;;1.15;;
60318;SDS011;46163;52.306;5.634;2022-11-20T09:21:58;1.30;;;1.30;;
60318;SDS011;46163;52.306;5.634;2022-11-20T09:24:24;1.40;;;1.30;;
60318;SDS011;46163;52.306;5.634;2022-11-20T09:26:50;1.42;;;1.33;;
60318;SDS011;46163;52.306;5.634;2022-11-20T09:29:16;1.25;;;1.25;;
60318;SDS011;46163;52.306;5.634;2022-11-20T09:31:41;1.30;;;1.30;;
60318;SDS011;46163;52.306;5.634;2022-11-20T09:34:07;1.15;;;1.15;;
60318;SDS011;46163;52.306;5.634;2022-11-20T09:36:32;1.25;;;1.20;;
60318;SDS011;46163;52.306;5.634;2022-11-20T09:38:58;1.27;;;1.20;;
60318;SDS011;46163;52.306;5.634;2022-11-20T09:54:45;1.80;;;1.70;;
60318;SDS011;46163;52.306;5.634;2022-11-20T09:57:12;1.70;;;1.60;;
60318;SDS011;46163;52.306;5.634;2022-11-20T09:59:42;1.23;;;1.23;;
60318;SDS011;46163;52.306;5.634;2022-11-20T10:04:49;1.63;;;1.52;;
60318;SDS011;46163;52.306;5.634;2022-11-20T10:07:27;1.40;;;1.30;;
60318;SDS011;46163;52.306;5.634;2022-11-20T10:10:00;1.58;;;1.48;;
60318;SDS011;46163;52.306;5.634;2022-11-20T10:15:22;1.67;;;1.55;;
60318;SDS011;46163;52.306;5.634;2022-11-20T10:21:08;1.60;;;1.50;;
60318;SDS011;46163;52.306;5.634;2022-11-20T10:29:13;2.08;;;1.48;;
60318;SDS011;46163;52.306;5.634;2022-11-20T10:31:45;2.88;;;1.58;;
60318;SDS011;46163;52.306;5.634;2022-11-20T10:36:52;1.75;;;1.63;;
60318;SDS011;46163;52.306;5.634;2022-11-20T10:42:10;1.88;;;1.77;;
60318;SDS011;46163;52.306;5.634;2022-11-20T10:44:43;1.65;;;1.55;;
60318;SDS011;46163;52.306;5.634;2022-11-20T10:47:26;1.45;;;1.35;;
60318;SDS011;46163;52.306;5.634;2022-11-20T10:49:55;2.17;;;1.40;;
60318;SDS011;46163;52.306;5.634;2022-11-20T10:52:33;1.50;;;1.40;;
60318;SDS011;46163;52.306;5.634;2022-11-20T11:00:25;1.40;;;1.30;;
60318;SDS011;46163;52.306;5.634;2022-11-20T11:02:52;1.33;;;1.30;;
60318;SDS011;46163;52.306;5.634;2022-11-20T11:07:46;1.92;;;1.30;;
60318;SDS011;46163;52.306;5.634;2022-11-20T11:10:19;1.45;;;1.40;;
60318;SDS011;46163;52.306;5.634;2022-11-20T11:12:49;1.30;;;1.30;;
60318;SDS011;46163;52.306;5.634;2022-11-20T11:15:24;1.50;;;1.40;;
60318;SDS011;46163;52.306;5.634;2022-11-20T11:17:53;2.63;;;2.00;;
60318;SDS011;46163;52.306;5.634;2022-11-20T11:20:23;2.45;;;2.22;;
60318;SDS011;46163;52.306;5.634;2022-11-20T11:22:51;2.35;;;2.00;;
60318;SDS011;46163;52.306;5.634;2022-11-20T11:27:59;2.50;;;2.03;;
60318;SDS011;46163;52.306;5.634;2022-11-20T11:30:28;2.63;;;2.20;;
60318;SDS011;46163;52.306;5.634;2022-11-20T11:33:06;3.17;;;2.72;;
60318;SDS011;46163;52.306;5.634;2022-11-20T11:35:47;3.03;;;2.40;;
60318;SDS011;46163;52.306;5.634;2022-11-20T11:41:01;3.75;;;3.20;;
60318;SDS011;46163;52.306;5.634;2022-11-20T11:43:29;5.13;;;3.53;;
60318;SDS011;46163;52.306;5.634;2022-11-20T11:51:32;3.40;;;3.10;;
60318;SDS011;46163;52.306;5.634;2022-11-20T11:54:09;4.60;;;3.53;;
60318;SDS011;46163;52.306;5.634;2022-11-20T11:56:41;3.35;;;2.72;;
60318;SDS011;46163;52.306;5.634;2022-11-20T11:59:09;4.18;;;2.70;;
60318;SDS011;46163;52.306;5.634;2022-11-20T12:09:05;4.40;;;3.30;;
60318;SDS011;46163;52.306;5.634;2022-11-20T12:14:24;4.55;;;2.90;;
60318;SDS011;46163;52.306;5.634;2022-11-20T12:17:14;3.65;;;2.85;;
60318;SDS011;46163;52.306;5.634;2022-11-20T12:19:39;3.03;;;2.60;;
60318;SDS011;46163;52.306;5.634;2022-11-20T12:25:00;2.72;;;2.25;;
60318;SDS011;46163;52.306;5.634;2022-11-20T12:27:39;2.47;;;2.28;;
60318;SDS011;46163;52.306;5.634;2022-11-20T12:30:21;2.22;;;1.90;;
60318;SDS011;46163;52.306;5.634;2022-11-20T12:47:15;2.28;;;1.80;;
60318;SDS011;46163;52.306;5.634;2022-11-20T12:55:08;2.03;;;1.83;;
60318;SDS011;46163;52.306;5.634;2022-11-20T12:57:50;4.57;;;1.70;;
60318;SDS011;46163;52.306;5.634;2022-11-20T13:00:21;1.75;;;1.65;;
60318;SDS011;46163;52.306;5.634;2022-11-20T13:05:37;1.60;;;1.50;;
60318;SDS011;46163;52.306;5.634;2022-11-20T13:08:21;2.13;;;1.80;;
60318;SDS011;46163;52.306;5.634;2022-11-20T13:16:53;2.20;;;1.50;;
60318;SDS011;46163;52.306;5.634;2022-11-20T13:19:22;1.60;;;1.50;;
60318;SDS011;46163;52.306;5.634;2022-11-20T13:21:48;1.50;;;1.40;;
60318;SDS011;46163;52.306;5.634;2022-11-20T13:26:43;1.70;;;1.60;;
60318;SDS011;46163;52.306;5.634;2022-11-20T13:29:11;1.67;;;1.58;;
60318;SDS011;46163;52.306;5.634;2022-11-20T13:31:43;1.70;;;1.60;;
60318;SDS011;46163;52.306;5.634;2022-11-20T13:34:22;1.70;;;1.60;;
60318;SDS011;46163;52.306;5.634;2022-11-20T13:36:51;1.48;;;1.42;;
60318;SDS011;46163;52.306;5.634;2022-11-20T13:39:28;1.30;;;1.30;;
60318;SDS011;46163;52.306;5.634;2022-11-20T13:42:25;1.60;;;1.50;;
60318;SDS011;46163;52.306;5.634;2022-11-20T13:45:00;1.60;;;1.50;;
60318;SDS011;46163;52.306;5.634;2022-11-20T13:47:28;1.50;;;1.40;;
60318;SDS011;46163;52.306;5.634;2022-11-20T13:49:57;1.63;;;1.52;;
60318;SDS011;46163;52.306;5.634;2022-11-20T14:01:13;2.80;;;1.98;;
60318;SDS011;46163;52.306;5.634;2022-11-20T14:03:39;2.20;;;1.77;;
60318;SDS011;46163;52.306;5.634;2022-11-20T14:06:10;1.58;;;1.40;;
60318;SDS011;46163;52.306;5.634;2022-11-20T14:08:41;2.63;;;1.70;;
60318;SDS011;46163;52.306;5.634;2022-11-20T14:11:18;1.88;;;1.50;;
60318;SDS011;46163;52.306;5.634;2022-11-20T14:16:31;1.60;;;1.50;;
60318;SDS011;46163;52.306;5.634;2022-11-20T14:19:17;2.50;;;1.70;;
60318;SDS011;46163;52.306;5.634;2022-11-20T14:21:44;1.70;;;1.60;;
60318;SDS011;46163;52.306;5.634;2022-11-20T14:24:11;1.70;;;1.60;;
60318;SDS011;46163;52.306;5.634;2022-11-20T14:26:41;1.45;;;1.40;;
60318;SDS011;46163;52.306;5.634;2022-11-20T14:29:15;1.50;;;1.40;;
60318;SDS011;46163;52.306;5.634;2022-11-20T14:31:44;1.67;;;1.58;;
60318;SDS011;46163;52.306;5.634;2022-11-20T14:34:15;1.60;;;1.50;;
60318;SDS011;46163;52.306;5.634;2022-11-20T14:36:44;1.80;;;1.52;;
60318;SDS011;46163;52.306;5.634;2022-11-20T14:39:11;1.70;;;1.60;;
60318;SDS011;46163;52.306;5.634;2022-11-20T14:41:50;4.18;;;1.58;;
60318;SDS011;46163;52.306;5.634;2022-11-20T14:44:17;1.38;;;1.27;;
60318;SDS011;46163;52.306;5.634;2022-11-20T14:46:42;2.15;;;1.42;;
60318;SDS011;46163;52.306;5.634;2022-11-20T14:49:08;1.48;;;1.40;;
60318;SDS011;46163;52.306;5.634;2022-11-20T14:51:39;1.38;;;1.30;;
60318;SDS011;46163;52.306;5.634;2022-11-20T14:54:10;1.38;;;1.27;;
60318;SDS011;46163;52.306;5.634;2022-11-20T14:56:37;1.85;;;1.40;;
60318;SDS011;46163;52.306;5.634;2022-11-20T14:59:03;1.50;;;1.40;;
60318;SDS011;46163;52.306;5.634;2022-11-20T15:01:30;1.52;;;1.40;;
60318;SDS011;46163;52.306;5.634;2022-11-20T15:04:15;1.60;;;1.50;;
60318;SDS011;46163;52.306;5.634;2022-11-20T15:07:00;1.50;;;1.40;;
60318;SDS011;46163;52.306;5.634;2022-11-20T15:09:26;1.52;;;1.42;;
60318;SDS011;46163;52.306;5.634;2022-11-20T15:11:53;2.15;;;1.60;;
60318;SDS011;46163;52.306;5.634;2022-11-20T15:14:24;1.73;;;1.52;;
60318;SDS011;46163;52.306;5.634;2022-11-20T15:16:51;1.95;;;1.60;;
60318;SDS011;46163;52.306;5.634;2022-11-20T15:19:19;2.22;;;1.58;;
60318;SDS011;46163;52.306;5.634;2022-11-20T15:21:46;1.45;;;1.30;;
60318;SDS011;46163;52.306;5.634;2022-11-20T15:24:12;2.63;;;1.70;;
60318;SDS011;46163;52.306;5.634;2022-11-20T15:26:37;1.60;;;1.50;;
60318;SDS011;46163;52.306;5.634;2022-11-20T15:29:16;2.15;;;1.75;;
60318;SDS011;46163;52.306;5.634;2022-11-20T15:31:43;1.60;;;1.50;;
60318;SDS011;46163;52.306;5.634;2022-11-20T15:34:13;2.30;;;1.50;;
60318;SDS011;46163;52.306;5.634;2022-11-20T15:36:41;1.60;;;1.50;;
60318;SDS011;46163;52.306;5.634;2022-11-20T15:39:08;1.60;;;1.50;;
60318;SDS011;46163;52.306;5.634;2022-11-20T15:41:34;2.85;;;1.50;;
60318;SDS011;46163;52.306;5.634;2022-11-20T15:44:01;1.90;;;1.80;;
60318;SDS011;46163;52.306;5.634;2022-11-20T15:46:27;1.70;;;1.60;;
60318;SDS011;46163;52.306;5.634;2022-11-20T15:48:56;1.60;;;1.50;;
60318;SDS011;46163;52.306;5.634;2022-11-20T15:51:29;1.80;;;1.60;;
60318;SDS011;46163;52.306;5.634;2022-11-20T15:53:56;1.95;;;1.50;;
60318;SDS011;46163;52.306;5.634;2022-11-20T15:56:23;1.58;;;1.48;;
60318;SDS011;46163;52.306;5.634;2022-11-20T15:58:51;1.50;;;1.40;;
60318;SDS011;46163;52.306;5.634;2022-11-20T16:01:18;1.65;;;1.55;;
60318;SDS011;46163;52.306;5.634;2022-11-20T16:03:46;2.83;;;1.80;;
60318;SDS011;46163;52.306;5.634;2022-11-20T16:06:12;3.10;;;2.22;;
60318;SDS011;46163;52.306;5.634;2022-11-20T16:08:38;3.58;;;2.38;;
60318;SDS011;46163;52.306;5.634;2022-11-20T16:11:04;2.92;;;2.47;;
60318;SDS011;46163;52.306;5.634;2022-11-20T16:13:31;3.00;;;2.30;;
60318;SDS011;46163;52.306;5.634;2022-11-20T16:16:25;3.53;;;2.83;;
60318;SDS011;46163;52.306;5.634;2022-11-20T16:18:55;3.85;;;2.80;;
60318;SDS011;46163;52.306;5.634;2022-11-20T16:21:21;2.60;;;2.40;;
60318;SDS011;46163;52.306;5.634;2022-11-20T16:23:52;3.65;;;2.80;;
60318;SDS011;46163;52.306;5.634;2022-11-20T16:26:17;4.32;;;3.03;;
60318;SDS011;46163;52.306;5.634;2022-11-20T16:28:45;3.83;;;3.10;;
60318;SDS011;46163;52.306;5.634;2022-11-20T16:31:15;3.20;;;2.10;;
60318;SDS011;46163;52.306;5.634;2022-11-20T16:33:42;6.75;;;2.17;;
60318;SDS011;46163;52.306;5.634;2022-11-20T16:36:15;2.40;;;1.98;;
60318;SDS011;46163;52.306;5.634;2022-11-20T16:38:41;2.50;;;1.80;;
60318;SDS011;46163;52.306;5.634;2022-11-20T16:41:07;2.15;;;1.95;;
60318;SDS011;46163;52.306;5.634;2022-11-20T16:43:45;3.53;;;2.08;;
60318;SDS011;46163;52.306;5.634;2022-11-20T16:46:16;2.65;;;1.90;;
60318;SDS011;46163;52.306;5.634;2022-11-20T16:48:43;2.47;;;1.80;;
60318;SDS011;46163;52.306;5.634;2022-11-20T16:51:09;1.92;;;1.77;;
60318;SDS011;46163;52.306;5.634;2022-11-20T16:53:37;1.80;;;1.70;;
60318;SDS011;46163;52.306;5.634;2022-11-20T16:56:11;2.35;;;1.88;;
60318;SDS011;46163;52.306;5.634;2022-11-20T16:58:38;3.72;;;1.98;;